sensor_id;sensor_type;location;lat;lon;timestamp;pressure;altitude;pressure_sealevel;temperature;humidity
31761;BME280;18335;51.486;7.562;2022-12-07T00:01:19;100215.81;;;4.57;100.00
31761;BME280;18335;51.486;7.562;2022-12-07T00:03:47;100211.97;;;4.59;100.00
31761;BME280;18335;51.486;7.562;2022-12-07T00:06:15;100211.22;;;4.68;100.00
31761;BME280;18335;51.486;7.562;2022-12-07T00:08:43;100213.31;;;4.65;100.00
31761;BME280;18335;51.486;7.562;2022-12-07T00:11:12;100217.16;;;4.83;100.00
31761;BME280;18335;51.486;7.562;2022-12-07T00:13:39;100215.59;;;4.80;100.00
31761;BME280;18335;51.486;7.562;2022-12-07T00:16:08;100207.31;;;4.82;100.00
31761;BME280;18335;51.486;7.562;2022-12-07T00:18:37;100210.19;;;4.80;100.00
31761;BME280;18335;51.486;7.562;2022-12-07T00:21:06;100206.16;;;4.64;100.00
31761;BME280;18335;51.486;7.562;2022-12-07T00:23:33;100200.66;;;4.65;100.00
31761;BME280;18335;51.486;7.562;2022-12-07T00:26:04;100204.47;;;4.63;100.00
31761;BME280;18335;51.486;7.562;2022-12-07T00:28:32;100213.78;;;4.70;100.00
31761;BME280;18335;51.486;7.562;2022-12-07T00:31:02;100205.53;;;4.71;100.00
31761;BME280;18335;51.486;7.562;2022-12-07T00:33:29;100213.00;;;4.79;100.00
31761;BME280;18335;51.486;7.562;2022-12-07T00:35:57;100203.31;;;4.76;100.00
31761;BME280;18335;51.486;7.562;2022-12-07T00:38:26;100212.72;;;4.82;100.00
31761;BME280;18335;51.486;7.562;2022-12-07T00:40:55;100204.00;;;4.89;100.00
31761;BME280;18335;51.486;7.562;2022-12-07T00:43:23;100204.25;;;4.86;100.00
31761;BME280;18335;51.486;7.562;2022-12-07T00:45:49;100194.59;;;4.73;100.00
31761;BME280;18335;51.486;7.562;2022-12-07T00:48:16;100198.81;;;4.66;100.00
31761;BME280;18335;51.486;7.562;2022-12-07T00:50:43;100199.22;;;4.82;100.00
31761;BME280;18335;51.486;7.562;2022-12-07T00:53:11;100197.38;;;4.82;100.00
31761;BME280;18335;51.486;7.562;2022-12-07T00:55:38;100191.78;;;4.74;100.00
31761;BME280;18335;51.486;7.562;2022-12-07T00:58:05;100179.44;;;4.81;100.00
31761;BME280;18335;51.486;7.562;2022-12-07T01:00:32;100177.13;;;4.77;100.00
31761;BME280;18335;51.486;7.562;2022-12-07T01:03:00;100184.91;;;4.70;100.00
31761;BME280;18335;51.486;7.562;2022-12-07T01:05:26;100182.91;;;4.72;100.00
31761;BME280;18335;51.486;7.562;2022-12-07T01:07:53;100180.47;;;4.69;100.00
31761;BME280;18335;51.486;7.562;2022-12-07T01:10:21;100179.13;;;4.75;100.00
31761;BME280;18335;51.486;7.562;2022-12-07T01:12:48;100179.44;;;4.81;100.00
31761;BME280;18335;51.486;7.562;2022-12-07T01:15:15;100189.88;;;4.86;100.00
31761;BME280;18335;51.486;7.562;2022-12-07T01:17:42;100185.63;;;4.72;100.00
31761;BME280;18335;51.486;7.562;2022-12-07T01:20:09;100180.63;;;4.88;100.00
31761;BME280;18335;51.486;7.562;2022-12-07T01:22:36;100177.81;;;4.58;100.00
31761;BME280;18335;51.486;7.562;2022-12-07T01:25:04;100180.03;;;4.85;100.00
31761;BME280;18335;51.486;7.562;2022-12-07T01:27:34;100181.69;;;4.76;100.00
31761;BME280;18335;51.486;7.562;2022-12-07T01:30:01;100179.75;;;4.67;100.00
31761;BME280;18335;51.486;7.562;2022-12-07T01:32:29;100180.44;;;4.80;100.00
31761;BME280;18335;51.486;7.562;2022-12-07T01:34:55;100177.19;;;4.66;100.00
31761;BME280;18335;51.486;7.562;2022-12-07T01:37:22;100178.97;;;4.76;100.00
31761;BME280;18335;51.486;7.562;2022-12-07T01:39:49;100186.56;;;4.82;100.00
31761;BME280;18335;51.486;7.562;2022-12-07T01:42:17;100184.72;;;4.83;100.00
31761;BME280;18335;51.486;7.562;2022-12-07T01:45:31;100181.28;;;4.81;100.00
31761;BME280;18335;51.486;7.562;2022-12-07T01:48:02;100177.47;;;4.83;100.00
31761;BME280;18335;51.486;7.562;2022-12-07T01:50:30;100175.47;;;4.65;100.00
31761;BME280;18335;51.486;7.562;2022-12-07T01:52:58;100183.16;;;4.80;100.00
31761;BME280;18335;51.486;7.562;2022-12-07T01:55:27;100180.97;;;4.74;100.00
31761;BME280;18335;51.486;7.562;2022-12-07T01:57:54;100183.94;;;4.71;100.00
31761;BME280;18335;51.486;7.562;2022-12-07T02:00:22;100184.28;;;4.67;100.00
31761;BME280;18335;51.486;7.562;2022-12-07T02:02:53;100191.09;;;4.82;100.00
31761;BME280;18335;51.486;7.562;2022-12-07T02:05:23;100184.66;;;4.73;100.00
31761;BME280;18335;51.486;7.562;2022-12-07T02:07:53;100173.97;;;4.72;100.00
31761;BME280;18335;51.486;7.562;2022-12-07T02:10:23;100180.34;;;4.71;100.00
31761;BME280;18335;51.486;7.562;2022-12-07T02:12:54;100172.34;;;4.80;100.00
31761;BME280;18335;51.486;7.562;2022-12-07T02:15:25;100170.00;;;4.76;100.00
31761;BME280;18335;51.486;7.562;2022-12-07T02:18:00;100168.06;;;4.78;100.00
31761;BME280;18335;51.486;7.562;2022-12-07T02:20:30;100160.91;;;4.77;100.00
31761;BME280;18335;51.486;7.562;2022-12-07T02:26:28;100171.66;;;4.67;100.00
31761;BME280;18335;51.486;7.562;2022-12-07T02:29:12;100176.19;;;4.67;100.00
31761;BME280;18335;51.486;7.562;2022-12-07T02:31:44;100167.91;;;4.79;100.00
31761;BME280;18335;51.486;7.562;2022-12-07T02:34:18;100172.84;;;4.74;100.00
31761;BME280;18335;51.486;7.562;2022-12-07T02:36:51;100165.81;;;4.83;100.00
31761;BME280;18335;51.486;7.562;2022-12-07T02:39:28;100175.47;;;4.65;100.00
31761;BME280;18335;51.486;7.562;2022-12-07T02:42:02;100180.72;;;4.66;100.00
31761;BME280;18335;51.486;7.562;2022-12-07T02:44:36;100171.72;;;4.77;100.00
31761;BME280;18335;51.486;7.562;2022-12-07T02:47:05;100171.31;;;4.81;100.00
31761;BME280;18335;51.486;7.562;2022-12-07T02:49:33;100177.00;;;4.78;100.00
31761;BME280;18335;51.486;7.562;2022-12-07T02:52:01;100173.63;;;4.65;100.00
31761;BME280;18335;51.486;7.562;2022-12-07T02:54:28;100171.59;;;4.78;100.00
31761;BME280;18335;51.486;7.562;2022-12-07T02:57:00;100179.25;;;4.73;100.00
31761;BME280;18335;51.486;7.562;2022-12-07T02:59:39;100169.63;;;4.80;100.00
31761;BME280;18335;51.486;7.562;2022-12-07T03:02:18;100167.75;;;4.81;100.00
31761;BME280;18335;51.486;7.562;2022-12-07T03:04:52;100166.84;;;4.71;100.00
31761;BME280;18335;51.486;7.562;2022-12-07T03:07:29;100168.84;;;4.69;100.00
31761;BME280;18335;51.486;7.562;2022-12-07T03:10:03;100161.81;;;4.66;100.00
31761;BME280;18335;51.486;7.562;2022-12-07T03:12:37;100166.59;;;4.74;100.00
31761;BME280;18335;51.486;7.562;2022-12-07T03:15:12;100163.50;;;4.46;100.00
31761;BME280;18335;51.486;7.562;2022-12-07T03:17:42;100169.88;;;4.57;100.00
31761;BME280;18335;51.486;7.562;2022-12-07T03:20:13;100161.78;;;4.45;100.00
31761;BME280;18335;51.486;7.562;2022-12-07T03:22:43;100169.47;;;4.29;100.00
31761;BME280;18335;51.486;7.562;2022-12-07T03:25:13;100173.03;;;4.30;100.00
31761;BME280;18335;51.486;7.562;2022-12-07T03:27:46;100166.03;;;4.27;100.00
31761;BME280;18335;51.486;7.562;2022-12-07T03:30:19;100161.88;;;4.23;100.00
31761;BME280;18335;51.486;7.562;2022-12-07T03:32:52;100160.16;;;4.22;100.00
31761;BME280;18335;51.486;7.562;2022-12-07T03:35:24;100165.50;;;4.33;100.00
31761;BME280;18335;51.486;7.562;2022-12-07T03:37:55;100164.16;;;4.39;100.00
31761;BME280;18335;51.486;7.562;2022-12-07T03:40:29;100167.19;;;4.45;100.00
31761;BME280;18335;51.486;7.562;2022-12-07T03:42:57;100162.03;;;4.42;100.00
31761;BME280;18335;51.486;7.562;2022-12-07T03:45:32;100163.50;;;4.46;100.00
31761;BME280;18335;51.486;7.562;2022-12-07T03:48:07;100154.25;;;4.28;100.00
31761;BME280;18335;51.486;7.562;2022-12-07T03:50:40;100156.22;;;4.26;100.00
31761;BME280;18335;51.486;7.562;2022-12-07T03:53:13;100155.47;;;4.24;100.00
31761;BME280;18335;51.486;7.562;2022-12-07T03:55:43;100158.88;;;4.37;100.00
31761;BME280;18335;51.486;7.562;2022-12-07T03:58:13;100154.84;;;4.32;100.00
31761;BME280;18335;51.486;7.562;2022-12-07T04:00:43;100157.66;;;4.30;100.00
31761;BME280;18335;51.486;7.562;2022-12-07T04:03:10;100162.13;;;4.20;100.00
31761;BME280;18335;51.486;7.562;2022-12-07T04:05:37;100157.59;;;4.10;100.00
31761;BME280;18335;51.486;7.562;2022-12-07T04:08:05;100159.97;;;4.03;100.00
31761;BME280;18335;51.486;7.562;2022-12-07T04:10:31;100166.56;;;4.10;100.00
31761;BME280;18335;51.486;7.562;2022-12-07T04:12:58;100163.75;;;4.12;100.00
31761;BME280;18335;51.486;7.562;2022-12-07T04:15:25;100168.81;;;4.05;100.00
31761;BME280;18335;51.486;7.562;2022-12-07T04:17:53;100157.97;;;4.16;100.00
31761;BME280;18335;51.486;7.562;2022-12-07T04:20:20;100163.28;;;3.96;100.00
31761;BME280;18335;51.486;7.562;2022-12-07T04:22:47;100167.09;;;3.93;100.00
31761;BME280;18335;51.486;7.562;2022-12-07T04:25:14;100156.03;;;4.07;100.00
31761;BME280;18335;51.486;7.562;2022-12-07T04:27:40;100160.22;;;4.00;100.00
31761;BME280;18335;51.486;7.562;2022-12-07T04:30:08;100160.91;;;4.13;100.00
31761;BME280;18335;51.486;7.562;2022-12-07T04:32:34;100154.53;;;4.14;100.00
31761;BME280;18335;51.486;7.562;2022-12-07T04:35:03;100156.28;;;4.04;100.00
31761;BME280;18335;51.486;7.562;2022-12-07T04:37:30;100161.88;;;4.12;100.00
31761;BME280;18335;51.486;7.562;2022-12-07T04:39:57;100153.53;;;4.15;100.00
31761;BME280;18335;51.486;7.562;2022-12-07T04:42:23;100159.84;;;4.05;100.00
31761;BME280;18335;51.486;7.562;2022-12-07T04:44:50;100157.16;;;3.94;100.00
31761;BME280;18335;51.486;7.562;2022-12-07T04:47:17;100157.88;;;3.96;100.00
31761;BME280;18335;51.486;7.562;2022-12-07T04:49:44;100163.53;;;3.92;100.00
31761;BME280;18335;51.486;7.562;2022-12-07T04:52:12;100158.88;;;4.06;100.00
31761;BME280;18335;51.486;7.562;2022-12-07T04:54:38;100159.88;;;3.94;100.00
31761;BME280;18335;51.486;7.562;2022-12-07T04:57:05;100158.50;;;3.99;100.00
31761;BME280;18335;51.486;7.562;2022-12-07T04:59:32;100151.41;;;3.87;100.00
31761;BME280;18335;51.486;7.562;2022-12-07T05:01:58;100151.50;;;3.85;100.00
31761;BME280;18335;51.486;7.562;2022-12-07T05:04:25;100154.34;;;3.84;100.00
31761;BME280;18335;51.486;7.562;2022-12-07T05:06:52;100155.84;;;3.88;100.00
31761;BME280;18335;51.486;7.562;2022-12-07T05:09:20;100155.91;;;3.98;100.00
31761;BME280;18335;51.486;7.562;2022-12-07T05:11:46;100153.72;;;3.91;100.00
31761;BME280;18335;51.486;7.562;2022-12-07T05:14:15;100156.31;;;3.93;100.00
31761;BME280;18335;51.486;7.562;2022-12-07T05:16:43;100151.28;;;3.77;100.00
31761;BME280;18335;51.486;7.562;2022-12-07T05:19:10;100159.50;;;3.87;100.00
31761;BME280;18335;51.486;7.562;2022-12-07T05:21:37;100165.38;;;3.92;100.00
31761;BME280;18335;51.486;7.562;2022-12-07T05:24:05;100161.69;;;3.93;100.00
31761;BME280;18335;51.486;7.562;2022-12-07T05:26:34;100158.25;;;4.02;100.00
31761;BME280;18335;51.486;7.562;2022-12-07T05:29:00;100160.72;;;3.94;100.00
31761;BME280;18335;51.486;7.562;2022-12-07T05:31:27;100158.38;;;3.89;100.00
31761;BME280;18335;51.486;7.562;2022-12-07T05:33:55;100158.53;;;3.88;100.00
31761;BME280;18335;51.486;7.562;2022-12-07T05:36:21;100156.59;;;3.79;100.00
31761;BME280;18335;51.486;7.562;2022-12-07T05:38:48;100160.50;;;3.75;100.00
31761;BME280;18335;51.486;7.562;2022-12-07T05:41:18;100150.56;;;3.75;100.00
31761;BME280;18335;51.486;7.562;2022-12-07T05:44:05;100145.78;;;3.79;100.00
31761;BME280;18335;51.486;7.562;2022-12-07T05:46:32;100147.50;;;3.69;100.00
31761;BME280;18335;51.486;7.562;2022-12-07T05:48:58;100150.59;;;3.64;100.00
31761;BME280;18335;51.486;7.562;2022-12-07T05:51:25;100144.56;;;3.72;100.00
31761;BME280;18335;51.486;7.562;2022-12-07T05:53:52;100143.75;;;4.14;100.00
31761;BME280;18335;51.486;7.562;2022-12-07T05:56:18;100146.53;;;3.70;100.00
31761;BME280;18335;51.486;7.562;2022-12-07T05:58:45;100143.84;;;4.13;100.00
31761;BME280;18335;51.486;7.562;2022-12-07T06:01:31;100141.94;;;3.92;100.00
31761;BME280;18335;51.486;7.562;2022-12-07T06:03:58;100146.75;;;3.78;100.00
31761;BME280;18335;51.486;7.562;2022-12-07T06:06:24;100147.00;;;3.75;100.00
31761;BME280;18335;51.486;7.562;2022-12-07T06:08:51;100152.00;;;3.79;100.00
31761;BME280;18335;51.486;7.562;2022-12-07T06:11:18;100146.53;;;3.70;100.00
31761;BME280;18335;51.486;7.562;2022-12-07T06:14:02;100149.31;;;3.90;100.00
31761;BME280;18335;51.486;7.562;2022-12-07T06:16:29;100146.72;;;3.89;100.00
31761;BME280;18335;51.486;7.562;2022-12-07T06:18:57;100137.44;;;3.82;100.00
31761;BME280;18335;51.486;7.562;2022-12-07T06:21:24;100145.03;;;3.88;100.00
31761;BME280;18335;51.486;7.562;2022-12-07T06:23:52;100141.59;;;3.86;100.00
31761;BME280;18335;51.486;7.562;2022-12-07T06:26:18;100147.13;;;3.73;100.00
31761;BME280;18335;51.486;7.562;2022-12-07T06:28:45;100146.97;;;3.86;100.00
31761;BME280;18335;51.486;7.562;2022-12-07T06:31:12;100145.78;;;3.68;100.00
31761;BME280;18335;51.486;7.562;2022-12-07T06:33:38;100160.00;;;3.81;100.00
31761;BME280;18335;51.486;7.562;2022-12-07T06:36:07;100148.25;;;3.60;100.00
31761;BME280;18335;51.486;7.562;2022-12-07T06:38:34;100154.59;;;3.81;100.00
31761;BME280;18335;51.486;7.562;2022-12-07T06:41:01;100159.38;;;3.77;100.00
31761;BME280;18335;51.486;7.562;2022-12-07T06:43:28;100164.41;;;3.71;100.00
31761;BME280;18335;51.486;7.562;2022-12-07T06:45:55;100159.03;;;3.82;100.00
31761;BME280;18335;51.486;7.562;2022-12-07T06:48:22;100156.00;;;3.64;100.00
31761;BME280;18335;51.486;7.562;2022-12-07T06:50:49;100156.84;;;3.54;100.00
31761;BME280;18335;51.486;7.562;2022-12-07T06:53:17;100163.19;;;3.75;100.00
31761;BME280;18335;51.486;7.562;2022-12-07T06:55:43;100163.91;;;3.77;100.00
31761;BME280;18335;51.486;7.562;2022-12-07T06:58:10;100163.22;;;3.64;100.00
31761;BME280;18335;51.486;7.562;2022-12-07T07:00:37;100165.41;;;3.70;100.00
31761;BME280;18335;51.486;7.562;2022-12-07T07:03:04;100171.66;;;3.81;100.00
31761;BME280;18335;51.486;7.562;2022-12-07T07:05:30;100163.56;;;3.70;100.00
31761;BME280;18335;51.486;7.562;2022-12-07T07:07:57;100162.22;;;3.76;100.00
31761;BME280;18335;51.486;7.562;2022-12-07T07:10:25;100163.31;;;3.62;100.00
31761;BME280;18335;51.486;7.562;2022-12-07T07:12:52;100170.56;;;3.62;100.00
31761;BME280;18335;51.486;7.562;2022-12-07T07:15:18;100170.56;;;3.62;100.00
31761;BME280;18335;51.486;7.562;2022-12-07T07:17:45;100167.25;;;3.47;100.00
31761;BME280;18335;51.486;7.562;2022-12-07T07:20:12;100167.38;;;3.46;100.00
31761;BME280;18335;51.486;7.562;2022-12-07T07:22:39;100173.75;;;3.45;100.00
31761;BME280;18335;51.486;7.562;2022-12-07T07:25:07;100171.03;;;3.56;100.00
31761;BME280;18335;51.486;7.562;2022-12-07T07:27:35;100177.41;;;3.44;100.00
31761;BME280;18335;51.486;7.562;2022-12-07T07:30:02;100172.28;;;3.63;100.00
31761;BME280;18335;51.486;7.562;2022-12-07T07:32:29;100170.81;;;3.48;100.00
31761;BME280;18335;51.486;7.562;2022-12-07T07:34:56;100176.94;;;3.50;100.00
31761;BME280;18335;51.486;7.562;2022-12-07T07:37:22;100179.91;;;3.58;100.00
31761;BME280;18335;51.486;7.562;2022-12-07T07:39:49;100174.25;;;3.61;100.00
31761;BME280;18335;51.486;7.562;2022-12-07T07:42:16;100177.94;;;3.49;100.00
31761;BME280;18335;51.486;7.562;2022-12-07T07:44:44;100172.28;;;3.41;100.00
31761;BME280;18335;51.486;7.562;2022-12-07T07:47:11;100176.69;;;3.30;100.00
31761;BME280;18335;51.486;7.562;2022-12-07T07:49:37;100175.59;;;3.44;100.00
31761;BME280;18335;51.486;7.562;2022-12-07T07:52:05;100172.16;;;3.42;100.00
31761;BME280;18335;51.486;7.562;2022-12-07T07:54:31;100177.91;;;3.38;100.00
31761;BME280;18335;51.486;7.562;2022-12-07T07:56:58;100175.59;;;3.33;100.00
31761;BME280;18335;51.486;7.562;2022-12-07T07:59:25;100179.38;;;3.42;100.00
31761;BME280;18335;51.486;7.562;2022-12-07T08:01:53;100175.00;;;3.52;100.00
31761;BME280;18335;51.486;7.562;2022-12-07T08:04:20;100175.97;;;3.40;100.00
31761;BME280;18335;51.486;7.562;2022-12-07T08:06:46;100174.00;;;3.42;100.00
31761;BME280;18335;51.486;7.562;2022-12-07T08:09:13;100176.34;;;3.46;100.00
31761;BME280;18335;51.486;7.562;2022-12-07T08:11:40;100186.03;;;3.49;100.00
31761;BME280;18335;51.486;7.562;2022-12-07T08:14:06;100184.19;;;3.49;100.00
31761;BME280;18335;51.486;7.562;2022-12-07T08:16:33;100190.53;;;3.70;100.00
31761;BME280;18335;51.486;7.562;2022-12-07T08:19:01;100198.53;;;3.72;100.00
31761;BME280;18335;51.486;7.562;2022-12-07T08:21:30;100201.09;;;3.62;100.00
31761;BME280;18335;51.486;7.562;2022-12-07T08:23:57;100191.66;;;3.57;100.00
31761;BME280;18335;51.486;7.562;2022-12-07T08:26:24;100195.94;;;3.70;100.00
31761;BME280;18335;51.486;7.562;2022-12-07T08:28:52;100184.03;;;3.84;100.00
31761;BME280;18335;51.486;7.562;2022-12-07T08:31:19;100194.97;;;3.94;100.00
31761;BME280;18335;51.486;7.562;2022-12-07T08:33:46;100196.94;;;3.69;100.00
31761;BME280;18335;51.486;7.562;2022-12-07T08:36:14;100194.94;;;3.82;100.00
31761;BME280;18335;51.486;7.562;2022-12-07T08:38:42;100188.47;;;3.85;100.00
31761;BME280;18335;51.486;7.562;2022-12-07T08:41:08;100191.91;;;3.87;100.00
31761;BME280;18335;51.486;7.562;2022-12-07T08:43:36;100204.03;;;3.81;100.00
31761;BME280;18335;51.486;7.562;2022-12-07T08:46:07;100195.44;;;3.99;100.00
31761;BME280;18335;51.486;7.562;2022-12-07T08:48:37;100196.50;;;4.07;100.00
31761;BME280;18335;51.486;7.562;2022-12-07T08:51:05;100192.47;;;4.02;100.00
31761;BME280;18335;51.486;7.562;2022-12-07T08:53:34;100198.09;;;4.10;100.00
31761;BME280;18335;51.486;7.562;2022-12-07T08:56:01;100202.63;;;4.09;100.00
31761;BME280;18335;51.486;7.562;2022-12-07T08:58:28;100200.44;;;4.14;100.00
31761;BME280;18335;51.486;7.562;2022-12-07T09:00:55;100198.81;;;4.23;100.00
31761;BME280;18335;51.486;7.562;2022-12-07T09:03:21;100202.00;;;4.28;100.00
31761;BME280;18335;51.486;7.562;2022-12-07T09:05:48;100196.47;;;4.29;100.00
31761;BME280;18335;51.486;7.562;2022-12-07T09:08:15;100202.84;;;4.28;100.00
31761;BME280;18335;51.486;7.562;2022-12-07T09:10:43;100191.44;;;4.25;100.00
31761;BME280;18335;51.486;7.562;2022-12-07T09:13:10;100191.53;;;4.34;100.00
31761;BME280;18335;51.486;7.562;2022-12-07T09:15:37;100185.63;;;4.40;100.00
31761;BME280;18335;51.486;7.562;2022-12-07T09:18:04;100190.28;;;4.50;100.00
31761;BME280;18335;51.486;7.562;2022-12-07T09:20:31;100193.03;;;4.27;100.00
31761;BME280;18335;51.486;7.562;2022-12-07T09:22:57;100194.97;;;4.36;100.00
31761;BME280;18335;51.486;7.562;2022-12-07T09:25:24;100192.66;;;4.32;100.00
31761;BME280;18335;51.486;7.562;2022-12-07T09:27:57;100196.84;;;4.25;100.00
31761;BME280;18335;51.486;7.562;2022-12-07T09:30:24;100193.91;;;4.28;100.00
31761;BME280;18335;51.486;7.562;2022-12-07T09:32:52;100193.56;;;4.10;100.00
31761;BME280;18335;51.486;7.562;2022-12-07T09:35:19;100191.34;;;4.26;100.00
31761;BME280;18335;51.486;7.562;2022-12-07T09:37:46;100197.59;;;4.27;100.00
31761;BME280;18335;51.486;7.562;2022-12-07T09:40:15;100197.91;;;4.44;100.00
31761;BME280;18335;51.486;7.562;2022-12-07T09:42:45;100192.19;;;4.27;100.00
31761;BME280;18335;51.486;7.562;2022-12-07T09:45:18;100197.06;;;4.44;100.00
31761;BME280;18335;51.486;7.562;2022-12-07T09:47:46;100188.94;;;4.44;100.00
31761;BME280;18335;51.486;7.562;2022-12-07T09:50:15;100194.13;;;4.68;100.00
31761;BME280;18335;51.486;7.562;2022-12-07T09:52:43;100183.75;;;4.52;100.00
31761;BME280;18335;51.486;7.562;2022-12-07T09:55:14;100181.06;;;4.73;100.00
31761;BME280;18335;51.486;7.562;2022-12-07T09:57:42;100196.06;;;4.77;100.00
31761;BME280;18335;51.486;7.562;2022-12-07T10:00:13;100188.03;;;4.55;100.00
31761;BME280;18335;51.486;7.562;2022-12-07T10:02:44;100185.56;;;4.63;100.00
31761;BME280;18335;51.486;7.562;2022-12-07T10:05:14;100182.88;;;4.52;100.00
31761;BME280;18335;51.486;7.562;2022-12-07T10:07:42;100177.22;;;4.55;100.00
31761;BME280;18335;51.486;7.562;2022-12-07T10:10:15;100176.03;;;4.47;100.00
31761;BME280;18335;51.486;7.562;2022-12-07T10:12:54;100178.91;;;4.35;100.00
31761;BME280;18335;51.486;7.562;2022-12-07T10:15:21;100182.69;;;4.43;100.00
31761;BME280;18335;51.486;7.562;2022-12-07T10:17:50;100172.59;;;4.45;100.00
31761;BME280;18335;51.486;7.562;2022-12-07T10:20:21;100177.69;;;4.39;100.00
31761;BME280;18335;51.486;7.562;2022-12-07T10:23:03;100176.03;;;4.47;100.00
31761;BME280;18335;51.486;7.562;2022-12-07T10:25:32;100176.41;;;4.43;100.00
31761;BME280;18335;51.486;7.562;2022-12-07T10:28:01;100176.72;;;4.61;100.00
31761;BME280;18335;51.486;7.562;2022-12-07T10:30:29;100179.16;;;4.64;100.00
31761;BME280;18335;51.486;7.562;2022-12-07T10:32:57;100177.25;;;4.75;100.00
31761;BME280;18335;51.486;7.562;2022-12-07T10:35:25;100174.59;;;4.64;100.00
31761;BME280;18335;51.486;7.562;2022-12-07T10:37:54;100166.84;;;4.71;100.00
31761;BME280;18335;51.486;7.562;2022-12-07T10:40:31;100159.66;;;4.81;100.00
31761;BME280;18335;51.486;7.562;2022-12-07T10:43:12;100158.03;;;4.69;100.00
31761;BME280;18335;51.486;7.562;2022-12-07T10:46:00;100147.66;;;4.74;100.00
31761;BME280;18335;51.486;7.562;2022-12-07T10:48:36;100149.41;;;4.75;100.00
31761;BME280;18335;51.486;7.562;2022-12-07T10:51:09;100150.09;;;4.77;100.00
31761;BME280;18335;51.486;7.562;2022-12-07T10:53:46;100146.13;;;4.81;100.00
31761;BME280;18335;51.486;7.562;2022-12-07T10:56:40;100138.84;;;4.92;100.00
31761;BME280;18335;51.486;7.562;2022-12-07T10:59:25;100129.66;;;4.84;100.00
31761;BME280;18335;51.486;7.562;2022-12-07T11:02:02;100132.31;;;4.95;100.00
31761;BME280;18335;51.486;7.562;2022-12-07T11:04:39;100133.53;;;5.12;100.00
31761;BME280;18335;51.486;7.562;2022-12-07T11:07:13;100129.00;;;4.91;100.00
31761;BME280;18335;51.486;7.562;2022-12-07T11:10:01;100133.88;;;5.18;100.00
31761;BME280;18335;51.486;7.562;2022-12-07T11:12:41;100120.19;;;5.20;100.00
31761;BME280;18335;51.486;7.562;2022-12-07T11:15:15;100119.91;;;5.23;100.00
31761;BME280;18335;51.486;7.562;2022-12-07T11:17:49;100126.16;;;5.14;100.00
31761;BME280;18335;51.486;7.562;2022-12-07T11:20:39;100122.25;;;5.27;100.00
31761;BME280;18335;51.486;7.562;2022-12-07T11:23:16;100116.81;;;4.97;100.00
31761;BME280;18335;51.486;7.562;2022-12-07T11:25:51;100110.00;;;4.82;100.00
31761;BME280;18335;51.486;7.562;2022-12-07T11:28:29;100117.91;;;5.15;100.00
31761;BME280;18335;51.486;7.562;2022-12-07T11:31:07;100106.09;;;5.46;100.00
31761;BME280;18335;51.486;7.562;2022-12-07T11:33:44;100114.44;;;5.34;100.00
31761;BME280;18335;51.486;7.562;2022-12-07T11:36:30;100098.94;;;5.36;100.00
31761;BME280;18335;51.486;7.562;2022-12-07T11:39:03;100097.66;;;5.40;100.00
31761;BME280;18335;51.486;7.562;2022-12-07T11:41:34;100090.03;;;5.54;100.00
31761;BME280;18335;51.486;7.562;2022-12-07T11:44:07;100089.75;;;5.57;100.00
31761;BME280;18335;51.486;7.562;2022-12-07T11:46:44;100096.91;;;5.28;100.00
31761;BME280;18335;51.486;7.562;2022-12-07T11:49:19;100098.38;;;5.42;100.00
31761;BME280;18335;51.486;7.562;2022-12-07T11:51:52;100103.56;;;5.24;100.00
31761;BME280;18335;51.486;7.562;2022-12-07T11:54:25;100096.09;;;5.37;100.00
31761;BME280;18335;51.486;7.562;2022-12-07T11:56:56;100086.56;;;5.43;100.00
31761;BME280;18335;51.486;7.562;2022-12-07T11:59:29;100092.84;;;5.43;100.00
31761;BME280;18335;51.486;7.562;2022-12-07T12:02:03;100080.13;;;5.34;100.00
31761;BME280;18335;51.486;7.562;2022-12-07T12:04:47;100087.72;;;5.50;100.00
31761;BME280;18335;51.486;7.562;2022-12-07T12:07:23;100080.50;;;5.60;100.00
31761;BME280;18335;51.486;7.562;2022-12-07T12:09:52;100077.91;;;5.58;100.00
31761;BME280;18335;51.486;7.562;2022-12-07T12:12:31;100079.91;;;5.56;100.00
31761;BME280;18335;51.486;7.562;2022-12-07T12:15:18;100082.69;;;5.36;100.00
31761;BME280;18335;51.486;7.562;2022-12-07T12:18:21;100071.91;;;5.45;100.00
31761;BME280;18335;51.486;7.562;2022-12-07T12:20:55;100079.88;;;5.47;100.00
31761;BME280;18335;51.486;7.562;2022-12-07T12:23:34;100085.28;;;5.47;100.00
31761;BME280;18335;51.486;7.562;2022-12-07T12:26:03;100068.19;;;5.37;100.00
31761;BME280;18335;51.486;7.562;2022-12-07T12:28:37;100073.91;;;5.43;100.00
31761;BME280;18335;51.486;7.562;2022-12-07T12:31:08;100075.69;;;5.64;100.00
31761;BME280;18335;51.486;7.562;2022-12-07T12:33:37;100069.78;;;5.58;100.00
31761;BME280;18335;51.486;7.562;2022-12-07T12:36:25;100075.13;;;5.70;100.00
31761;BME280;18335;51.486;7.562;2022-12-07T12:41:54;100061.41;;;5.62;100.00
31761;BME280;18335;51.486;7.562;2022-12-07T12:47:43;100054.22;;;5.41;100.00
31761;BME280;18335;51.486;7.562;2022-12-07T12:50:20;100052.97;;;5.45;100.00
31761;BME280;18335;51.486;7.562;2022-12-07T12:53:00;100049.56;;;5.43;100.00
31761;BME280;18335;51.486;7.562;2022-12-07T12:55:54;100035.47;;;5.49;100.00
31761;BME280;18335;51.486;7.562;2022-12-07T12:58:32;100042.00;;;5.37;100.00
31761;BME280;18335;51.486;7.562;2022-12-07T13:04:24;100038.06;;;5.80;100.00
31761;BME280;18335;51.486;7.562;2022-12-07T13:06:52;100040.63;;;5.72;100.00
31761;BME280;18335;51.486;7.562;2022-12-07T13:09:22;100033.69;;;5.79;100.00
31761;BME280;18335;51.486;7.562;2022-12-07T13:11:58;100041.34;;;5.74;100.00
31761;BME280;18335;51.486;7.562;2022-12-07T13:14:55;100034.94;;;5.75;100.00
31761;BME280;18335;51.486;7.562;2022-12-07T13:23:26;100027.16;;;5.41;100.00
31761;BME280;18335;51.486;7.562;2022-12-07T13:26:03;100022.88;;;5.29;100.00